createdAt,value
2019-01-25T00:00:19.088Z,39.37
2019-01-25T00:02:49.818Z,51.73
2019-01-25T00:05:20.559Z,31.37
2019-01-25T00:07:51.154Z,42.83
2019-01-25T00:10:21.767Z,40.50
2019-01-25T00:12:52.434Z,39.90
2019-01-25T00:15:23.090Z,47.67
2019-01-25T00:17:53.717Z,45.20
2019-01-25T00:20:24.342Z,44.63
2019-01-25T00:22:55.746Z,37.23
2019-01-25T00:25:26.597Z,42.53
2019-01-25T00:27:57.499Z,41.13
2019-01-25T00:30:28.176Z,39.00
2019-01-25T00:32:58.839Z,46.17
2019-01-25T00:35:29.495Z,32.37
2019-01-25T00:38:00.093Z,38.17
2019-01-25T00:40:30.741Z,40.23
2019-01-25T00:43:01.306Z,44.27
2019-01-25T00:45:31.974Z,36.07
2019-01-25T00:48:02.589Z,41.60
2019-01-25T00:50:33.268Z,33.10
2019-01-25T00:53:03.891Z,42.47
2019-01-25T00:55:34.500Z,42.20
2019-01-25T00:58:05.329Z,41.10
2019-01-25T01:00:36.036Z,39.00
2019-01-25T01:03:07.554Z,44.83
2019-01-25T01:05:40.061Z,41.03
2019-01-25T01:08:10.770Z,35.33
2019-01-25T01:10:41.389Z,42.67
2019-01-25T01:13:12.027Z,38.87
2019-01-25T01:15:42.652Z,33.27
2019-01-25T01:18:13.285Z,42.50
2019-01-25T01:20:43.904Z,39.40
2019-01-25T01:23:15.305Z,40.93
2019-01-25T01:25:45.977Z,36.17
2019-01-25T01:28:16.642Z,37.20
2019-01-25T01:30:47.227Z,38.60
2019-01-25T01:33:17.759Z,36.20
2019-01-25T01:35:48.423Z,33.77
2019-01-25T01:38:19.053Z,34.77
2019-01-25T01:40:49.819Z,30.13
2019-01-25T01:43:20.426Z,40.53
2019-01-25T01:45:51.088Z,36.23
2019-01-25T01:48:21.649Z,32.50
2019-01-25T01:50:52.332Z,36.83
2019-01-25T01:53:23.001Z,37.87
2019-01-25T01:55:53.701Z,36.23
2019-01-25T01:58:24.303Z,36.97
2019-01-25T02:00:54.917Z,42.40
2019-01-25T02:03:25.865Z,39.47
2019-01-25T02:05:56.578Z,37.70
2019-01-25T02:08:27.252Z,42.00
2019-01-25T02:10:58.005Z,39.70
2019-01-25T02:13:28.608Z,39.13
2019-01-25T02:16:00.182Z,40.80
2019-01-25T02:18:31.230Z,40.50
2019-01-25T02:21:03.021Z,42.73
2019-01-25T02:23:34.431Z,36.83
2019-01-25T02:26:05.111Z,39.73
2019-01-25T02:28:35.873Z,45.67
2019-01-25T02:31:06.429Z,40.13
2019-01-25T02:33:36.983Z,40.77
2019-01-25T02:36:07.606Z,36.90
2019-01-25T02:38:38.243Z,37.90
2019-01-25T02:41:17.036Z,32.40
2019-01-25T02:43:47.677Z,41.57
2019-01-25T02:46:18.379Z,35.23
2019-01-25T02:48:48.841Z,40.73
2019-01-25T02:51:19.482Z,36.23
2019-01-25T02:53:50.110Z,38.80
2019-01-25T02:56:20.750Z,41.90
2019-01-25T02:58:51.376Z,34.30
2019-01-25T03:01:22.025Z,33.27
2019-01-25T03:03:52.620Z,36.13
2019-01-25T03:06:25.098Z,34.27
2019-01-25T03:08:55.715Z,32.10
2019-01-25T03:11:26.345Z,35.77
2019-01-25T03:13:56.854Z,33.67
2019-01-25T03:16:27.493Z,36.87
2019-01-25T03:18:59.824Z,50.67
2019-01-25T03:21:30.448Z,42.30
2019-01-25T03:24:01.894Z,42.53
2019-01-25T03:26:32.612Z,31.57
2019-01-25T03:29:03.323Z,34.93
2019-01-25T03:31:34.042Z,37.13
2019-01-25T03:34:04.842Z,29.33
2019-01-25T03:36:35.533Z,34.03
2019-01-25T03:39:08.834Z,29.37
2019-01-25T03:41:39.521Z,32.83
2019-01-25T03:44:10.260Z,29.27
2019-01-25T03:46:41.435Z,30.90
2019-01-25T03:49:12.390Z,20.23
2019-01-25T03:51:43.098Z,35.17
2019-01-25T03:54:13.815Z,28.17
2019-01-25T03:56:44.479Z,36.07
2019-01-25T03:59:15.165Z,35.37
2019-01-25T04:01:47.471Z,25.93
2019-01-25T04:04:18.056Z,36.10
2019-01-25T04:06:48.707Z,34.00
2019-01-25T04:09:19.271Z,26.40
2019-01-25T04:11:53.344Z,27.70
2019-01-25T04:14:23.049Z,34.63
2019-01-25T04:16:53.724Z,32.40
2019-01-25T04:19:24.396Z,30.40
2019-01-25T04:21:55.136Z,26.40
2019-01-25T04:24:26.536Z,31.47
2019-01-25T04:26:57.271Z,35.23
2019-01-25T04:29:28.178Z,34.20
2019-01-25T04:31:58.811Z,29.23
2019-01-25T04:34:29.412Z,34.13
2019-01-25T04:37:00.208Z,38.70
2019-01-25T04:39:30.902Z,29.63
2019-01-25T04:42:01.552Z,33.77
2019-01-25T04:44:33.832Z,35.57
2019-01-25T04:47:04.450Z,36.60
2019-01-25T04:49:36.919Z,36.73
2019-01-25T04:52:15.126Z,29.47
2019-01-25T04:54:45.732Z,40.40
2019-01-25T04:57:16.371Z,31.57
2019-01-25T04:59:47.011Z,27.03
2019-01-25T05:02:17.663Z,30.53
2019-01-25T05:04:50.867Z,34.83
2019-01-25T05:07:21.526Z,36.30
2019-01-25T05:09:52.005Z,32.70
2019-01-25T05:12:22.564Z,31.30
2019-01-25T05:14:53.251Z,33.92
2019-01-25T05:17:23.949Z,34.07
2019-01-25T05:19:54.618Z,38.17
2019-01-25T05:22:25.419Z,38.53
2019-01-25T05:24:56.827Z,37.70
2019-01-25T05:27:30.456Z,33.70
2019-01-25T05:30:01.134Z,40.57
2019-01-25T05:32:31.859Z,37.67
2019-01-25T05:35:03.972Z,37.10
2019-01-25T05:37:37.930Z,33.03
2019-01-25T05:40:12.228Z,33.43
2019-01-25T05:42:42.867Z,39.77
2019-01-25T05:45:16.713Z,31.97
2019-01-25T05:47:47.314Z,36.07
2019-01-25T05:50:18.725Z,37.70
2019-01-25T05:52:49.262Z,38.13
2019-01-25T05:55:23.725Z,32.23
2019-01-25T05:58:03.573Z,34.97
2019-01-25T06:00:38.274Z,37.83
2019-01-25T06:03:12.558Z,40.73
2019-01-25T06:05:44.053Z,35.33
2019-01-25T06:08:31.924Z,38.87
2019-01-25T06:11:07.833Z,31.43
2019-01-25T06:13:38.988Z,39.50
2019-01-25T06:16:10.053Z,34.17
2019-01-25T06:18:41.061Z,38.13
2019-01-25T06:21:11.754Z,37.30
2019-01-25T06:23:42.471Z,38.43
2019-01-25T06:26:14.358Z,32.17
2019-01-25T06:28:49.443Z,36.53
2019-01-25T06:31:27.819Z,33.90
2019-01-25T06:33:58.417Z,37.13
2019-01-25T06:36:29.037Z,42.43
2019-01-25T06:39:01.763Z,39.07
2019-01-25T06:41:32.430Z,42.87
2019-01-25T06:44:02.970Z,33.33
2019-01-25T06:46:33.795Z,38.40
2019-01-25T06:49:04.945Z,42.53
2019-01-25T06:51:38.627Z,38.77
2019-01-25T06:54:09.268Z,45.27
2019-01-25T06:56:39.855Z,35.27
2019-01-25T06:59:12.210Z,30.90
2019-01-25T07:01:44.499Z,33.00
2019-01-25T07:04:15.110Z,37.70
2019-01-25T07:06:47.245Z,38.57
2019-01-25T07:09:18.050Z,43.07
2019-01-25T07:11:51.703Z,41.83
2019-01-25T07:14:20.998Z,42.57
2019-01-25T07:16:51.654Z,40.33
2019-01-25T07:19:32.841Z,46.70
2019-01-25T07:22:07.822Z,45.33
2019-01-25T07:24:38.535Z,44.03
2019-01-25T07:27:10.254Z,45.57
2019-01-25T07:29:40.965Z,44.50
2019-01-25T07:32:11.679Z,42.23
2019-01-25T07:34:42.362Z,39.10
2019-01-25T07:37:15.214Z,40.23
2019-01-25T07:39:46.658Z,39.60
2019-01-25T07:42:17.610Z,38.40
2019-01-25T07:44:49.247Z,38.83
2019-01-25T07:47:19.893Z,40.00
2019-01-25T07:49:50.603Z,31.90
2019-01-25T07:52:25.802Z,29.23
2019-01-25T07:54:56.423Z,29.83
2019-01-25T07:57:27.516Z,36.77
2019-01-25T07:59:58.907Z,34.93
2019-01-25T08:02:29.321Z,32.30
2019-01-25T08:04:59.954Z,37.93
2019-01-25T08:07:30.602Z,34.03
2019-01-25T08:10:01.306Z,32.97
2019-01-25T08:12:31.941Z,32.63
2019-01-25T08:15:04.335Z,42.17
2019-01-25T08:17:34.976Z,37.90
2019-01-25T08:20:10.067Z,34.47
2019-01-25T08:22:41.307Z,40.10
2019-01-25T08:25:16.215Z,38.13
2019-01-25T08:27:48.367Z,39.73
2019-01-25T08:30:22.485Z,33.93
2019-01-25T08:32:53.404Z,34.73
2019-01-25T08:35:24.151Z,32.63
2019-01-25T08:37:54.710Z,34.37
2019-01-25T08:40:25.448Z,35.40
2019-01-25T08:42:56.949Z,37.67
2019-01-25T08:45:27.894Z,33.40
2019-01-25T08:47:58.608Z,42.00
2019-01-25T08:50:29.333Z,33.77
2019-01-25T08:52:59.903Z,36.37
2019-01-25T08:55:30.578Z,34.70
2019-01-25T08:58:01.337Z,37.77
2019-01-25T09:00:32.268Z,32.80
2019-01-25T09:03:02.911Z,32.07
2019-01-25T09:05:33.608Z,31.87
2019-01-25T09:08:05.419Z,41.10
2019-01-25T09:10:39.605Z,36.90
2019-01-25T09:13:10.219Z,30.33
2019-01-25T09:15:41.075Z,33.97
2019-01-25T09:18:11.975Z,35.07
2019-01-25T09:20:42.596Z,33.07
2019-01-25T09:23:14.184Z,34.67
2019-01-25T09:25:44.815Z,37.63
2019-01-25T09:28:16.062Z,35.23
2019-01-25T09:30:48.159Z,33.53
2019-01-25T09:33:20.229Z,33.20
2019-01-25T09:35:54.202Z,34.40
2019-01-25T09:38:26.000Z,32.40
2019-01-25T09:40:57.725Z,37.10
2019-01-25T09:43:29.478Z,32.00
2019-01-25T09:46:00.498Z,38.47
2019-01-25T09:48:31.705Z,38.20
2019-01-25T09:51:06.113Z,33.23
2019-01-25T09:53:38.312Z,32.87
2019-01-25T09:56:10.166Z,29.83
2019-01-25T09:58:44.696Z,35.37
2019-01-25T10:01:21.191Z,31.73
2019-01-25T10:03:52.434Z,33.50
2019-01-25T10:06:25.262Z,32.97
2019-01-25T10:08:57.026Z,35.37
2019-01-25T10:11:29.145Z,37.50
2019-01-25T10:14:00.678Z,32.57
2019-01-25T10:16:32.931Z,35.67
2019-01-25T10:19:03.686Z,32.87
2019-01-25T10:21:34.723Z,33.37
2019-01-25T10:24:05.620Z,39.77
2019-01-25T10:26:36.159Z,31.10
2019-01-25T10:29:07.647Z,34.13
2019-01-25T10:31:38.193Z,35.83
2019-01-25T10:34:14.519Z,31.60
2019-01-25T10:36:45.120Z,36.17
2019-01-25T10:39:15.840Z,35.83
2019-01-25T10:41:46.828Z,37.07
2019-01-25T10:44:17.864Z,35.43
2019-01-25T10:46:48.579Z,34.10
2019-01-25T10:49:19.411Z,34.13
2019-01-25T10:51:50.016Z,35.60
2019-01-25T10:54:22.351Z,31.50
2019-01-25T10:56:53.426Z,34.57
2019-01-25T10:59:25.129Z,37.53
2019-01-25T11:01:56.802Z,34.63
2019-01-25T11:04:27.736Z,33.70
2019-01-25T11:06:58.605Z,35.67
2019-01-25T11:09:29.190Z,33.77
2019-01-25T11:11:59.959Z,38.00
2019-01-25T11:14:30.669Z,33.17
2019-01-25T11:17:01.292Z,37.70
2019-01-25T11:19:32.000Z,37.93
2019-01-25T11:22:02.610Z,35.63
2019-01-25T11:24:33.212Z,35.27
2019-01-25T11:27:04.069Z,34.80
2019-01-25T11:29:35.478Z,36.90
2019-01-25T11:32:06.157Z,34.17
2019-01-25T11:34:36.784Z,33.67
2019-01-25T11:37:07.793Z,31.20
2019-01-25T11:39:38.363Z,37.23
2019-01-25T11:42:09.051Z,32.30
2019-01-25T11:44:43.885Z,37.17
2019-01-25T11:47:16.075Z,32.60
2019-01-25T11:49:46.712Z,33.93
2019-01-25T11:52:17.350Z,33.23
2019-01-25T11:54:50.997Z,32.47
2019-01-25T11:57:21.648Z,34.27
2019-01-25T11:59:53.182Z,33.27
2019-01-25T12:02:23.810Z,35.97
2019-01-25T12:04:54.394Z,31.30
2019-01-25T12:07:25.220Z,35.87
2019-01-25T12:09:57.274Z,38.07
2019-01-25T12:12:29.059Z,34.13
2019-01-25T12:14:59.609Z,39.57
2019-01-25T12:17:30.972Z,35.03
2019-01-25T12:20:01.870Z,36.70
2019-01-25T12:22:32.519Z,35.43
2019-01-25T12:28:05.975Z,32.17
2019-01-25T12:30:43.143Z,34.40
2019-01-25T12:33:13.601Z,34.70
2019-01-25T12:35:50.054Z,35.73
2019-01-25T12:38:21.324Z,34.83
2019-01-25T12:40:56.122Z,33.20
2019-01-25T12:43:30.226Z,36.60
2019-01-25T12:46:01.192Z,32.80
2019-01-25T12:48:32.304Z,35.67
2019-01-25T12:51:08.114Z,38.90
2019-01-25T12:53:38.562Z,33.73
2019-01-25T12:56:12.247Z,30.07
2019-01-25T12:58:42.963Z,34.63
2019-01-25T13:01:13.922Z,33.37
2019-01-25T13:03:46.422Z,30.63
2019-01-25T13:06:16.899Z,34.13
2019-01-25T13:08:47.503Z,35.40
2019-01-25T13:11:18.018Z,32.70
2019-01-25T13:13:49.497Z,33.73
2019-01-25T13:16:23.097Z,37.67
2019-01-25T13:18:53.632Z,36.20
2019-01-25T13:21:25.720Z,37.00
2019-01-25T13:23:57.542Z,37.13
2019-01-25T13:26:28.403Z,32.00
2019-01-25T13:28:59.912Z,29.43
2019-01-25T13:31:32.704Z,37.17
2019-01-25T13:34:03.751Z,37.00
2019-01-25T13:36:34.423Z,35.20
2019-01-25T13:39:08.207Z,35.67
2019-01-25T13:41:39.228Z,38.00
2019-01-25T13:44:09.925Z,37.37
2019-01-25T13:46:40.500Z,36.67
2019-01-25T13:49:11.502Z,38.07
2019-01-25T13:51:42.116Z,34.63
2019-01-25T13:54:15.744Z,34.20
2019-01-25T13:56:46.301Z,32.67
2019-01-25T13:59:16.872Z,32.87
2019-01-25T14:01:47.524Z,33.43
2019-01-25T14:04:18.178Z,36.43
2019-01-25T14:06:48.783Z,39.90
2019-01-25T14:09:19.401Z,34.90
2019-01-25T14:11:50.083Z,41.37
2019-01-25T14:14:21.650Z,36.90
2019-01-25T14:16:53.293Z,35.93
2019-01-25T14:19:23.902Z,37.40
2019-01-25T14:21:54.457Z,36.10
2019-01-25T14:24:27.913Z,37.70
2019-01-25T14:26:58.496Z,35.73
2019-01-25T14:29:29.359Z,32.40
2019-01-25T14:32:00.884Z,33.43
2019-01-25T14:34:33.065Z,36.43
2019-01-25T14:37:03.712Z,33.90
2019-01-25T14:39:34.403Z,36.93
2019-01-25T14:42:05.040Z,35.47
2019-01-25T14:44:35.635Z,32.70
2019-01-25T14:47:06.601Z,34.13
2019-01-25T14:49:38.073Z,38.30
2019-01-25T14:52:08.781Z,34.20
2019-01-25T14:54:39.460Z,38.30
2019-01-25T14:57:13.255Z,34.87
2019-01-25T14:59:44.620Z,34.67
2019-01-25T15:02:15.318Z,28.90
2019-01-25T15:04:50.311Z,32.30
2019-01-25T15:07:21.272Z,30.37
2019-01-25T15:09:51.838Z,35.30
2019-01-25T15:12:22.848Z,39.13
2019-01-25T15:14:53.522Z,38.07
2019-01-25T15:17:24.126Z,34.63
2019-01-25T15:19:54.952Z,31.73
2019-01-25T15:22:25.475Z,31.50
2019-01-25T15:24:56.323Z,31.80
2019-01-25T15:27:28.528Z,27.87
2019-01-25T15:30:00.312Z,30.93
2019-01-25T15:32:32.986Z,33.60
2019-01-25T15:35:04.257Z,30.80
2019-01-25T15:37:34.915Z,30.07
2019-01-25T15:40:12.404Z,27.17
2019-01-25T15:42:43.301Z,25.67
2019-01-25T15:45:20.567Z,31.60
2019-01-25T15:47:51.255Z,26.77
2019-01-25T15:50:27.835Z,30.67
2019-01-25T15:52:59.872Z,29.57
2019-01-25T15:55:30.861Z,25.57
2019-01-25T15:58:01.420Z,30.43
2019-01-25T16:00:32.054Z,32.57
2019-01-25T16:03:02.666Z,30.53
2019-01-25T16:05:33.359Z,32.70
2019-01-25T16:08:04.232Z,28.93
2019-01-25T16:10:35.266Z,24.13
2019-01-25T16:13:05.937Z,32.93
2019-01-25T16:15:37.941Z,25.97
2019-01-25T16:18:09.648Z,24.33
2019-01-25T16:20:40.405Z,25.73
2019-01-25T16:23:11.708Z,25.83
2019-01-25T16:25:42.914Z,29.20
2019-01-25T16:28:13.467Z,21.43
2019-01-25T16:30:44.789Z,29.77
2019-01-25T16:33:16.583Z,32.63
2019-01-25T16:35:47.862Z,24.90
2019-01-25T16:38:18.541Z,27.93
2019-01-25T16:40:49.569Z,23.77
2019-01-25T16:43:20.197Z,28.57
2019-01-25T16:45:50.941Z,21.00
2019-01-25T16:48:21.589Z,22.40
2019-01-25T16:50:53.293Z,24.67
2019-01-25T16:53:23.901Z,28.83
2019-01-25T16:55:55.923Z,27.50
2019-01-25T16:58:30.001Z,25.87
2019-01-25T17:01:00.998Z,28.53
2019-01-25T17:03:31.587Z,28.57
2019-01-25T17:06:02.624Z,29.10
2019-01-25T17:08:33.323Z,27.77
2019-01-25T17:11:04.196Z,29.50
2019-01-25T17:13:34.847Z,28.17
2019-01-25T17:16:05.917Z,30.37
2019-01-25T17:18:36.526Z,28.73
2019-01-25T17:21:07.324Z,30.83
2019-01-25T17:23:41.247Z,26.27
2019-01-25T17:26:14.908Z,32.93
2019-01-25T17:28:45.641Z,23.60
2019-01-25T17:31:16.340Z,23.93
2019-01-25T17:33:49.553Z,25.27
2019-01-25T17:36:20.199Z,26.57
2019-01-25T17:38:51.159Z,25.60
2019-01-25T17:41:23.508Z,21.93
2019-01-25T17:43:54.150Z,27.90
2019-01-25T17:46:25.192Z,25.80
2019-01-25T17:48:56.172Z,30.47
2019-01-25T17:51:28.086Z,25.53
2019-01-25T17:53:58.682Z,23.07
2019-01-25T17:56:29.381Z,27.03
2019-01-25T17:59:00.088Z,24.10
2019-01-25T18:01:30.723Z,23.23
2019-01-25T18:04:01.241Z,25.83
2019-01-25T18:06:32.046Z,25.10
2019-01-25T18:09:02.664Z,22.63
2019-01-25T18:11:33.373Z,26.03
2019-01-25T18:14:06.108Z,21.53
2019-01-25T18:16:36.813Z,24.13
2019-01-25T18:19:08.831Z,26.03
2019-01-25T18:21:39.396Z,27.13
2019-01-25T18:24:10.456Z,26.47
2019-01-25T18:26:41.314Z,25.47
2019-01-25T18:29:11.779Z,23.20
2019-01-25T18:31:42.822Z,22.77
2019-01-25T18:34:14.830Z,22.77
2019-01-25T18:36:45.549Z,22.73
2019-01-25T18:39:19.928Z,22.17
2019-01-25T18:41:50.538Z,22.87
2019-01-25T18:44:21.231Z,28.47
2019-01-25T18:46:51.846Z,23.13
2019-01-25T18:49:22.775Z,36.00
2019-01-25T18:51:53.696Z,30.63
2019-01-25T18:54:24.671Z,25.87
2019-01-25T18:56:55.610Z,26.30
2019-01-25T18:59:26.233Z,28.00
2019-01-25T19:01:56.880Z,23.43
2019-01-25T19:04:27.576Z,25.23
2019-01-25T19:06:58.911Z,28.33
2019-01-25T19:09:30.348Z,33.07
2019-01-25T19:12:00.976Z,31.27
2019-01-25T19:14:31.486Z,33.07
2019-01-25T19:17:02.959Z,62.10
2019-01-25T19:19:33.627Z,52.77
2019-01-25T19:22:04.269Z,52.67
2019-01-25T19:24:34.829Z,49.97
2019-01-25T19:27:05.952Z,48.17
2019-01-25T19:29:36.650Z,37.37
2019-01-25T19:32:07.801Z,30.77
2019-01-25T19:34:39.123Z,24.77
2019-01-25T19:37:09.768Z,29.60
2019-01-25T19:39:40.373Z,26.02
2019-01-25T19:42:11.034Z,32.75
2019-01-25T19:44:41.629Z,33.67
2019-01-25T19:47:12.292Z,23.73
2019-01-25T19:49:42.812Z,31.00
2019-01-25T19:52:13.481Z,29.60
2019-01-25T19:54:44.135Z,31.80
2019-01-25T19:57:14.821Z,30.65
2019-01-25T19:59:48.175Z,30.60
2019-01-25T20:02:18.834Z,28.90
2019-01-25T20:04:49.454Z,28.70
2019-01-25T20:07:20.147Z,29.42
2019-01-25T20:09:50.742Z,29.37
2019-01-25T20:12:21.508Z,23.45
2019-01-25T20:14:52.056Z,24.57
2019-01-25T20:17:22.696Z,25.90
2019-01-25T20:19:55.468Z,30.37
2019-01-25T20:22:26.163Z,23.67
2019-01-25T20:24:56.836Z,28.13
2019-01-25T20:27:27.790Z,27.87
2019-01-25T20:29:58.371Z,32.23
2019-01-25T20:32:29.509Z,28.27
2019-01-25T20:35:02.650Z,34.00
2019-01-25T20:37:33.418Z,28.75
2019-01-25T20:40:05.921Z,31.65
2019-01-25T20:42:37.995Z,33.63
2019-01-25T20:45:13.612Z,28.00
2019-01-25T20:47:44.261Z,23.90
2019-01-25T20:50:19.091Z,33.47
2019-01-25T20:52:49.760Z,29.87
2019-01-25T20:55:20.483Z,28.23
2019-01-25T20:57:51.151Z,30.37
2019-01-25T21:00:37.005Z,41.92
2019-01-25T21:03:12.643Z,61.67
2019-01-25T21:05:42.582Z,39.57
2019-01-25T21:08:13.304Z,58.20
2019-01-25T21:10:44.088Z,46.93
2019-01-25T21:13:16.155Z,35.00
2019-01-25T21:15:46.864Z,39.20
2019-01-25T21:18:17.478Z,30.15
2019-01-25T21:20:48.449Z,30.90
2019-01-25T21:23:19.064Z,34.92
2019-01-25T21:25:49.865Z,39.18
2019-01-25T21:28:20.639Z,38.17
2019-01-25T21:30:51.244Z,43.20
2019-01-25T21:33:21.733Z,41.05
2019-01-25T21:35:53.158Z,31.52
2019-01-25T21:38:24.248Z,39.15
2019-01-25T21:40:54.865Z,34.73
2019-01-25T21:43:25.490Z,32.48
2019-01-25T21:45:56.158Z,35.70
2019-01-25T21:48:26.797Z,41.05
2019-01-25T21:50:57.500Z,32.70
2019-01-25T21:53:28.151Z,37.37
2019-01-25T21:56:02.181Z,32.17
2019-01-25T21:58:33.903Z,27.23
2019-01-25T22:01:05.712Z,24.63
2019-01-25T22:03:36.382Z,24.53
2019-01-25T22:06:07.187Z,30.65
2019-01-25T22:08:37.843Z,28.17
2019-01-25T22:11:08.449Z,30.00
2019-01-25T22:13:39.154Z,31.60
2019-01-25T22:16:09.685Z,32.17
2019-01-25T22:18:40.290Z,26.60
2019-01-25T22:21:10.824Z,28.40
2019-01-25T22:23:41.402Z,35.50
2019-01-25T22:26:12.004Z,24.10
2019-01-25T22:28:42.565Z,31.57
2019-01-25T22:31:13.272Z,38.28
2019-01-25T22:33:43.947Z,36.40
2019-01-25T22:36:15.323Z,33.13
2019-01-25T22:38:46.468Z,26.02
2019-01-25T22:41:17.894Z,31.65
2019-01-25T22:43:50.026Z,39.70
2019-01-25T22:46:20.723Z,32.28
2019-01-25T22:48:51.420Z,32.88
2019-01-25T22:51:22.011Z,27.87
2019-01-25T22:53:55.258Z,31.27
2019-01-25T22:56:25.820Z,35.35
2019-01-25T22:58:56.420Z,26.87
2019-01-25T23:01:27.984Z,31.02
2019-01-25T23:04:11.913Z,29.35
2019-01-25T23:06:45.693Z,25.02
2019-01-25T23:09:23.619Z,25.15
2019-01-25T23:11:54.309Z,27.50
2019-01-25T23:14:24.967Z,28.02
2019-01-25T23:16:56.628Z,29.72
2019-01-25T23:19:28.217Z,34.25
2019-01-25T23:21:58.815Z,29.13
2019-01-25T23:24:29.482Z,28.42
2019-01-25T23:27:00.372Z,24.50
2019-01-25T23:29:31.439Z,25.50
2019-01-25T23:32:02.138Z,27.07
2019-01-25T23:34:36.935Z,30.88
2019-01-25T23:37:08.527Z,20.60
2019-01-25T23:39:39.145Z,29.52
2019-01-25T23:42:10.395Z,39.18
2019-01-25T23:44:41.045Z,43.50
2019-01-25T23:47:11.962Z,47.40
2019-01-25T23:49:42.557Z,40.43
2019-01-25T23:52:13.114Z,44.53
2019-01-25T23:54:44.039Z,45.30
2019-01-25T23:57:14.687Z,42.17
2019-01-25T23:59:45.313Z,46.45
